LECO/LCG METAR and TAF weather

Enter ICAO airport designator
Station Type Date Time Source
LECO METAR 2019/08/22 04:30 UTC NOAA

LECO 220430Z 19003KT 0150 R21/0650N R03/0550U FG BKN001 13/13 Q1020 NOSIG


Station Type Date Time Source
LECO Decoded METAR 2019/08/22 04:30 UTC NOAA

Station name not available
Aug 22, 2019 - 12:30 AM EDT / 2019.08.22 0430 UTC
Wind: from the S (190 degrees) at 3 MPH (3 KT):0
Visibility: less than 1 mile:0
Sky conditions: mostly cloudy
Weather: fog
Temperature: 55 F (13 C)
Dew Point: 55 F (13 C)
Relative Humidity: 100%
Pressure (altimeter): 30.12 in. Hg (1020 hPa)
ob: LECO 220430Z 19003KT 0150 R21/0650N R03/0550U FG BKN001 13/13 Q1020 NOSIG
cycle: 4

Station Type Date Time Source
LECO TAF 2019/08/22 03:34 UTC NOAA

TAF
AMD LECO 220326Z 2203/2303 VRB02KT CAVOK TX30/2215Z TN12/2206Z
TEMPO 2203/2207 3000 BCFG
TEMPO 2204/2208 0350 FG VV001
TEMPO 2204/2208 0100 FG VV001 PROB40
TEMPO 2212/2221 07010KT

Example: see airport list